sensor_id;sensor_type;location;lat;lon;timestamp;noise_LAeq;noise_LA_min;noise_LA_max;noise_LA01;noise_LA95
1754;Laerm;58380;48.312;9.246;2023-07-24T06:06:38;48.07;38.61;75.19;;
1754;Laerm;58380;48.312;9.246;2023-07-24T06:09:03;47.92;38.04;68.96;;
1754;Laerm;58380;48.312;9.246;2023-07-24T06:11:28;48.67;39.94;68.93;;
1754;Laerm;58380;48.312;9.246;2023-07-24T06:13:54;46.79;39.74;67.75;;
1754;Laerm;58380;48.312;9.246;2023-07-24T06:16:19;51.40;40.45;81.59;;
1754;Laerm;58380;48.312;9.246;2023-07-24T06:18:45;49.84;42.49;70.11;;
1754;Laerm;58380;48.312;9.246;2023-07-24T06:21:10;47.40;41.74;63.02;;
1754;Laerm;58380;48.312;9.246;2023-07-24T06:23:36;48.72;39.20;61.57;;
1754;Laerm;58380;48.312;9.246;2023-07-24T06:26:01;49.20;40.19;65.73;;
1754;Laerm;58380;48.312;9.246;2023-07-24T06:28:27;46.34;39.58;62.16;;
1754;Laerm;58380;48.312;9.246;2023-07-24T06:30:54;49.77;39.66;77.40;;
1754;Laerm;58380;48.312;9.246;2023-07-24T06:33:19;45.98;38.42;66.74;;
1754;Laerm;58380;48.312;9.246;2023-07-24T06:35:48;51.13;39.83;81.23;;
1754;Laerm;58380;48.312;9.246;2023-07-24T06:38:16;53.43;40.26;72.77;;
1754;Laerm;58380;48.312;9.246;2023-07-24T06:40:42;45.27;37.53;59.32;;
1754;Laerm;58380;48.312;9.246;2023-07-24T06:43:07;46.96;38.69;57.34;;
1754;Laerm;58380;48.312;9.246;2023-07-24T06:45:33;44.30;39.19;53.08;;
1754;Laerm;58380;48.312;9.246;2023-07-24T06:47:58;45.87;37.37;58.13;;
1754;Laerm;58380;48.312;9.246;2023-07-24T06:50:24;42.48;36.21;52.51;;
1754;Laerm;58380;48.312;9.246;2023-07-24T06:52:49;44.06;36.69;52.62;;
1754;Laerm;58380;48.312;9.246;2023-07-24T06:55:16;46.19;39.18;54.74;;
1754;Laerm;58380;48.312;9.246;2023-07-24T06:57:42;45.51;38.06;60.21;;
1754;Laerm;58380;48.312;9.246;2023-07-24T07:00:08;45.35;36.74;61.55;;
1754;Laerm;58380;48.312;9.246;2023-07-24T07:02:37;44.57;37.96;60.51;;
1754;Laerm;58380;48.312;9.246;2023-07-24T07:05:04;45.54;38.19;56.45;;
1754;Laerm;58380;48.312;9.246;2023-07-24T07:07:29;44.40;36.74;67.11;;
1754;Laerm;58380;48.312;9.246;2023-07-24T07:09:55;44.67;37.49;55.83;;
1754;Laerm;58380;48.312;9.246;2023-07-24T07:12:20;44.79;35.99;55.76;;
1754;Laerm;58380;48.312;9.246;2023-07-24T07:14:46;44.36;37.67;63.83;;
1754;Laerm;58380;48.312;9.246;2023-07-24T07:17:11;47.20;37.12;55.98;;
1754;Laerm;58380;48.312;9.246;2023-07-24T07:19:36;43.31;37.04;52.10;;
1754;Laerm;58380;48.312;9.246;2023-07-24T07:22:02;46.60;37.29;59.70;;
1754;Laerm;58380;48.312;9.246;2023-07-24T07:24:28;47.55;36.44;65.96;;
1754;Laerm;58380;48.312;9.246;2023-07-24T07:26:53;45.69;35.40;55.27;;
1754;Laerm;58380;48.312;9.246;2023-07-24T07:29:19;45.35;38.32;54.36;;
1754;Laerm;58380;48.312;9.246;2023-07-24T07:31:44;45.14;35.81;57.95;;
1754;Laerm;58380;48.312;9.246;2023-07-24T07:34:09;44.27;36.26;55.88;;
1754;Laerm;58380;48.312;9.246;2023-07-24T07:36:35;49.99;37.85;60.56;;
1754;Laerm;58380;48.312;9.246;2023-07-24T07:39:00;44.71;38.35;56.63;;
1754;Laerm;58380;48.312;9.246;2023-07-24T07:41:26;46.66;35.75;56.68;;
1754;Laerm;58380;48.312;9.246;2023-07-24T07:43:51;45.56;38.58;53.12;;
1754;Laerm;58380;48.312;9.246;2023-07-24T07:46:17;42.78;33.95;56.78;;
1754;Laerm;58380;48.312;9.246;2023-07-24T07:48:42;43.55;37.63;53.07;;
1754;Laerm;58380;48.312;9.246;2023-07-24T07:51:08;45.12;37.20;59.55;;
1754;Laerm;58380;48.312;9.246;2023-07-24T07:53:33;45.27;36.89;60.98;;
1754;Laerm;58380;48.312;9.246;2023-07-24T07:55:59;44.43;37.86;52.01;;
1754;Laerm;58380;48.312;9.246;2023-07-24T07:58:27;44.50;36.89;63.65;;
1754;Laerm;58380;48.312;9.246;2023-07-24T08:00:53;50.93;36.26;64.38;;
1754;Laerm;58380;48.312;9.246;2023-07-24T08:03:18;41.76;36.84;57.34;;
1754;Laerm;58380;48.312;9.246;2023-07-24T08:05:44;46.76;36.52;68.46;;
1754;Laerm;58380;48.312;9.246;2023-07-24T08:08:09;46.12;37.52;66.37;;
1754;Laerm;58380;48.312;9.246;2023-07-24T08:10:38;43.94;35.35;65.49;;
1754;Laerm;58380;48.312;9.246;2023-07-24T08:13:03;45.22;36.12;69.28;;
1754;Laerm;58380;48.312;9.246;2023-07-24T08:15:29;47.29;35.52;72.05;;
1754;Laerm;58380;48.312;9.246;2023-07-24T08:17:54;47.18;37.91;58.21;;
1754;Laerm;58380;48.312;9.246;2023-07-24T08:20:19;47.65;37.99;70.39;;
1754;Laerm;58380;48.312;9.246;2023-07-24T08:22:45;53.38;37.89;83.05;;
1754;Laerm;58380;48.312;9.246;2023-07-24T08:25:10;47.75;34.29;74.50;;
1754;Laerm;58380;48.312;9.246;2023-07-24T08:27:35;44.78;34.39;68.80;;
1754;Laerm;58380;48.312;9.246;2023-07-24T08:30:01;45.20;33.07;62.92;;
1754;Laerm;58380;48.312;9.246;2023-07-24T08:32:26;50.22;32.69;62.39;;
1754;Laerm;58380;48.312;9.246;2023-07-24T08:34:51;45.11;37.12;61.01;;
1754;Laerm;58380;48.312;9.246;2023-07-24T08:37:17;48.74;40.76;74.10;;
1754;Laerm;58380;48.312;9.246;2023-07-24T08:39:42;51.91;40.19;76.27;;
1754;Laerm;58380;48.312;9.246;2023-07-24T08:42:11;48.28;41.73;64.70;;
1754;Laerm;58380;48.312;9.246;2023-07-24T08:44:37;52.31;46.29;65.21;;
1754;Laerm;58380;48.312;9.246;2023-07-24T08:47:04;49.84;42.45;61.15;;
1754;Laerm;58380;48.312;9.246;2023-07-24T08:49:33;48.28;42.37;59.48;;
1754;Laerm;58380;48.312;9.246;2023-07-24T08:52:01;51.54;43.16;68.75;;
1754;Laerm;58380;48.312;9.246;2023-07-24T08:54:27;47.31;41.82;58.85;;
1754;Laerm;58380;48.312;9.246;2023-07-24T08:56:54;48.43;42.59;61.03;;
1754;Laerm;58380;48.312;9.246;2023-07-24T08:59:20;51.09;45.59;57.98;;
1754;Laerm;58380;48.312;9.246;2023-07-24T09:01:46;48.47;42.89;63.01;;
1754;Laerm;58380;48.312;9.246;2023-07-24T09:04:11;48.22;42.18;66.42;;
1754;Laerm;58380;48.312;9.246;2023-07-24T09:06:37;45.90;41.24;62.60;;
1754;Laerm;58380;48.312;9.246;2023-07-24T09:09:02;47.30;41.28;60.70;;
1754;Laerm;58380;48.312;9.246;2023-07-24T09:11:47;52.24;43.21;78.22;;
1754;Laerm;58380;48.312;9.246;2023-07-24T09:14:27;52.45;43.44;79.59;;
1754;Laerm;58380;48.312;9.246;2023-07-24T09:17:09;47.74;42.14;58.25;;
1754;Laerm;58380;48.312;9.246;2023-07-24T09:19:35;57.65;44.22;87.27;;
1754;Laerm;58380;48.312;9.246;2023-07-24T09:22:11;52.77;41.79;77.67;;
1754;Laerm;58380;48.312;9.246;2023-07-24T09:24:37;51.26;41.87;77.11;;
1754;Laerm;58380;48.312;9.246;2023-07-24T09:27:05;59.67;45.11;89.15;;
1754;Laerm;58380;48.312;9.246;2023-07-24T09:29:33;55.40;40.81;86.80;;
1754;Laerm;58380;48.312;9.246;2023-07-24T09:32:00;51.52;42.38;80.47;;
1754;Laerm;58380;48.312;9.246;2023-07-24T09:34:25;49.15;42.67;73.81;;
1754;Laerm;58380;48.312;9.246;2023-07-24T09:36:51;46.88;36.82;69.25;;
1754;Laerm;58380;48.312;9.246;2023-07-24T09:39:26;48.39;39.87;71.19;;
1754;Laerm;58380;48.312;9.246;2023-07-24T09:41:52;47.59;39.10;64.77;;
1754;Laerm;58380;48.312;9.246;2023-07-24T09:44:18;46.64;38.14;57.81;;
1754;Laerm;58380;48.312;9.246;2023-07-24T09:46:45;48.43;37.02;71.61;;
1754;Laerm;58380;48.312;9.246;2023-07-24T09:49:11;46.75;39.39;60.27;;
1754;Laerm;58380;48.312;9.246;2023-07-24T09:51:37;47.27;37.58;64.54;;
1754;Laerm;58380;48.312;9.246;2023-07-24T09:54:15;50.99;39.61;76.34;;
1754;Laerm;58380;48.312;9.246;2023-07-24T09:56:42;46.56;38.01;62.15;;
1754;Laerm;58380;48.312;9.246;2023-07-24T09:59:09;53.37;39.69;72.33;;
1754;Laerm;58380;48.312;9.246;2023-07-24T10:01:36;47.73;39.52;72.59;;
1754;Laerm;58380;48.312;9.246;2023-07-24T10:04:03;47.62;42.07;63.57;;
1754;Laerm;58380;48.312;9.246;2023-07-24T10:06:29;47.81;36.08;75.23;;
1754;Laerm;58380;48.312;9.246;2023-07-24T10:08:56;46.28;40.58;62.58;;
1754;Laerm;58380;48.312;9.246;2023-07-24T10:11:24;47.01;38.23;60.94;;
1754;Laerm;58380;48.312;9.246;2023-07-24T10:13:50;48.39;41.22;71.84;;
1754;Laerm;58380;48.312;9.246;2023-07-24T10:16:16;46.88;37.39;71.26;;
1754;Laerm;58380;48.312;9.246;2023-07-24T10:18:44;49.75;34.73;81.69;;
1754;Laerm;58380;48.312;9.246;2023-07-24T10:21:11;44.97;33.33;68.65;;
1754;Laerm;58380;48.312;9.246;2023-07-24T10:23:45;49.97;34.64;73.25;;
1754;Laerm;58380;48.312;9.246;2023-07-24T10:26:14;47.26;34.24;72.64;;
1754;Laerm;58380;48.312;9.246;2023-07-24T10:28:41;51.58;33.95;76.05;;
1754;Laerm;58380;48.312;9.246;2023-07-24T10:31:19;48.74;34.10;70.55;;
1754;Laerm;58380;48.312;9.246;2023-07-24T10:33:45;64.03;45.98;89.52;;
1754;Laerm;58380;48.312;9.246;2023-07-24T10:36:11;60.47;46.94;87.34;;
1754;Laerm;58380;48.312;9.246;2023-07-24T10:38:43;58.24;48.81;80.93;;
1754;Laerm;58380;48.312;9.246;2023-07-24T10:41:10;59.34;53.33;81.63;;
1754;Laerm;58380;48.312;9.246;2023-07-24T10:43:45;55.80;49.13;81.80;;
1754;Laerm;58380;48.312;9.246;2023-07-24T10:46:13;49.93;43.35;69.68;;
1754;Laerm;58380;48.312;9.246;2023-07-24T10:48:43;51.81;39.23;80.99;;
1754;Laerm;58380;48.312;9.246;2023-07-24T10:51:10;50.57;42.84;73.82;;
1754;Laerm;58380;48.312;9.246;2023-07-24T10:53:37;48.11;39.73;64.54;;
1754;Laerm;58380;48.312;9.246;2023-07-24T10:56:04;51.21;37.11;73.44;;
1754;Laerm;58380;48.312;9.246;2023-07-24T10:58:32;49.78;37.53;72.00;;
1754;Laerm;58380;48.312;9.246;2023-07-24T11:00:58;43.89;36.18;59.22;;
1754;Laerm;58380;48.312;9.246;2023-07-24T11:03:25;60.41;40.75;82.93;;
1754;Laerm;58380;48.312;9.246;2023-07-24T11:05:51;55.93;50.09;80.30;;
1754;Laerm;58380;48.312;9.246;2023-07-24T11:08:20;55.67;51.15;75.50;;
1754;Laerm;58380;48.312;9.246;2023-07-24T11:10:52;57.44;49.74;82.77;;
1754;Laerm;58380;48.312;9.246;2023-07-24T11:13:22;51.94;41.86;81.71;;
1754;Laerm;58380;48.312;9.246;2023-07-24T11:15:49;53.43;42.71;77.57;;
1754;Laerm;58380;48.312;9.246;2023-07-24T11:18:16;51.30;45.29;69.43;;
1754;Laerm;58380;48.312;9.246;2023-07-24T11:20:55;52.16;46.22;72.96;;
1754;Laerm;58380;48.312;9.246;2023-07-24T11:23:22;57.34;45.84;91.75;;
1754;Laerm;58380;48.312;9.246;2023-07-24T11:25:51;51.56;43.35;78.80;;
1754;Laerm;58380;48.312;9.246;2023-07-24T11:28:17;46.86;40.98;60.89;;
1754;Laerm;58380;48.312;9.246;2023-07-24T11:30:43;47.72;38.59;55.56;;
1754;Laerm;58380;48.312;9.246;2023-07-24T11:33:13;44.90;37.61;57.79;;
1754;Laerm;58380;48.312;9.246;2023-07-24T11:35:40;47.96;40.96;59.66;;
1754;Laerm;58380;48.312;9.246;2023-07-24T11:38:09;45.89;39.06;52.76;;
1754;Laerm;58380;48.312;9.246;2023-07-24T11:40:42;49.54;42.18;56.70;;
1754;Laerm;58380;48.312;9.246;2023-07-24T11:43:22;47.17;41.98;57.68;;
1754;Laerm;58380;48.312;9.246;2023-07-24T11:45:50;50.54;43.33;59.22;;
1754;Laerm;58380;48.312;9.246;2023-07-24T11:48:23;49.26;43.34;59.58;;
1754;Laerm;58380;48.312;9.246;2023-07-24T11:50:55;48.58;43.62;60.40;;
1754;Laerm;58380;48.312;9.246;2023-07-24T11:53:27;48.31;42.58;56.90;;
1754;Laerm;58380;48.312;9.246;2023-07-24T11:55:58;48.09;41.25;61.98;;
1754;Laerm;58380;48.312;9.246;2023-07-24T11:58:29;47.20;42.35;59.44;;
1754;Laerm;58380;48.312;9.246;2023-07-24T12:00:56;50.26;42.47;69.25;;
1754;Laerm;58380;48.312;9.246;2023-07-24T12:03:28;47.99;41.02;58.39;;
1754;Laerm;58380;48.312;9.246;2023-07-24T12:05:53;48.19;42.25;64.06;;
1754;Laerm;58380;48.312;9.246;2023-07-24T12:08:39;47.87;42.27;57.98;;
1754;Laerm;58380;48.312;9.246;2023-07-24T12:11:16;50.98;41.76;64.87;;
1754;Laerm;58380;48.312;9.246;2023-07-24T12:13:42;46.55;42.23;54.66;;
1754;Laerm;58380;48.312;9.246;2023-07-24T12:16:08;48.50;43.33;58.11;;
1754;Laerm;58380;48.312;9.246;2023-07-24T12:18:33;43.91;34.98;52.96;;
1754;Laerm;58380;48.312;9.246;2023-07-24T12:21:02;44.77;34.30;55.91;;
1754;Laerm;58380;48.312;9.246;2023-07-24T12:23:27;43.10;36.10;55.56;;
1754;Laerm;58380;48.312;9.246;2023-07-24T12:25:52;44.05;37.78;53.08;;
1754;Laerm;58380;48.312;9.246;2023-07-24T12:28:18;46.20;39.59;54.33;;
1754;Laerm;58380;48.312;9.246;2023-07-24T12:30:43;45.49;38.01;55.63;;
1754;Laerm;58380;48.312;9.246;2023-07-24T12:33:09;44.59;35.49;56.88;;
1754;Laerm;58380;48.312;9.246;2023-07-24T12:35:34;45.84;38.08;60.10;;
1754;Laerm;58380;48.312;9.246;2023-07-24T12:38:00;45.54;35.76;55.59;;
1754;Laerm;58380;48.312;9.246;2023-07-24T12:40:25;44.45;36.18;56.25;;
1754;Laerm;58380;48.312;9.246;2023-07-24T12:42:50;45.85;36.11;55.14;;
1754;Laerm;58380;48.312;9.246;2023-07-24T12:45:16;44.50;36.64;58.63;;
1754;Laerm;58380;48.312;9.246;2023-07-24T12:47:41;43.08;35.03;53.72;;
1754;Laerm;58380;48.312;9.246;2023-07-24T12:50:07;47.36;38.93;58.66;;
1754;Laerm;58380;48.312;9.246;2023-07-24T12:52:32;49.09;34.92;75.35;;
1754;Laerm;58380;48.312;9.246;2023-07-24T12:54:58;43.08;36.91;65.14;;
1754;Laerm;58380;48.312;9.246;2023-07-24T12:57:23;50.31;36.01;71.23;;
1754;Laerm;58380;48.312;9.246;2023-07-24T12:59:49;45.65;34.41;56.80;;
1754;Laerm;58380;48.312;9.246;2023-07-24T13:02:14;46.64;37.97;55.34;;
1754;Laerm;58380;48.312;9.246;2023-07-24T13:04:40;47.98;34.58;57.07;;
1754;Laerm;58380;48.312;9.246;2023-07-24T13:07:05;46.62;35.22;56.25;;
1754;Laerm;58380;48.312;9.246;2023-07-24T13:09:30;46.53;35.37;55.81;;
1754;Laerm;58380;48.312;9.246;2023-07-24T13:11:56;48.08;34.77;71.58;;
1754;Laerm;58380;48.312;9.246;2023-07-24T13:14:21;47.16;35.43;62.58;;
1754;Laerm;58380;48.312;9.246;2023-07-24T13:16:49;43.96;33.81;56.24;;
1754;Laerm;58380;48.312;9.246;2023-07-24T13:19:14;44.66;33.35;56.23;;
1754;Laerm;58380;48.312;9.246;2023-07-24T13:21:40;40.89;33.08;51.82;;
1754;Laerm;58380;48.312;9.246;2023-07-24T13:24:06;44.54;37.30;52.72;;
1754;Laerm;58380;48.312;9.246;2023-07-24T13:26:32;45.83;36.54;54.43;;
1754;Laerm;58380;48.312;9.246;2023-07-24T13:28:58;45.33;37.33;59.75;;
1754;Laerm;58380;48.312;9.246;2023-07-24T13:31:23;48.92;38.59;73.16;;
1754;Laerm;58380;48.312;9.246;2023-07-24T13:33:49;58.04;43.36;85.93;;
1754;Laerm;58380;48.312;9.246;2023-07-24T13:36:14;63.14;45.71;84.24;;
1754;Laerm;58380;48.312;9.246;2023-07-24T13:38:40;60.77;51.63;83.94;;
1754;Laerm;58380;48.312;9.246;2023-07-24T13:41:07;56.59;50.41;79.51;;
1754;Laerm;58380;48.312;9.246;2023-07-24T13:43:33;62.40;52.74;89.42;;
1754;Laerm;58380;48.312;9.246;2023-07-24T13:45:59;52.26;44.83;74.13;;
1754;Laerm;58380;48.312;9.246;2023-07-24T13:48:27;52.28;45.59;76.25;;
1754;Laerm;58380;48.312;9.246;2023-07-24T13:50:52;52.48;45.90;71.07;;
1754;Laerm;58380;48.312;9.246;2023-07-24T13:53:18;50.41;41.06;73.22;;
1754;Laerm;58380;48.312;9.246;2023-07-24T13:55:43;50.40;41.39;80.89;;
1754;Laerm;58380;48.312;9.246;2023-07-24T13:58:08;49.31;40.51;74.59;;
1754;Laerm;58380;48.312;9.246;2023-07-24T14:00:34;48.25;41.10;67.81;;
1754;Laerm;58380;48.312;9.246;2023-07-24T14:02:59;46.55;37.67;69.52;;
1754;Laerm;58380;48.312;9.246;2023-07-24T14:05:25;47.08;41.01;62.70;;
1754;Laerm;58380;48.312;9.246;2023-07-24T14:07:50;53.36;42.28;71.86;;
1754;Laerm;58380;48.312;9.246;2023-07-24T14:10:15;56.79;45.88;87.39;;
1754;Laerm;58380;48.312;9.246;2023-07-24T14:12:41;53.06;47.17;76.92;;
1754;Laerm;58380;48.312;9.246;2023-07-24T14:15:07;50.38;42.25;61.89;;
1754;Laerm;58380;48.312;9.246;2023-07-24T14:17:32;50.92;43.18;71.75;;
1754;Laerm;58380;48.312;9.246;2023-07-24T14:19:58;48.39;40.12;69.01;;
1754;Laerm;58380;48.312;9.246;2023-07-24T14:22:23;48.65;37.48;69.84;;
1754;Laerm;58380;48.312;9.246;2023-07-24T14:24:48;51.59;44.20;78.86;;
1754;Laerm;58380;48.312;9.246;2023-07-24T14:27:14;51.92;41.38;76.84;;
1754;Laerm;58380;48.312;9.246;2023-07-24T14:29:40;49.20;40.39;75.70;;
1754;Laerm;58380;48.312;9.246;2023-07-24T14:32:06;46.65;39.74;67.84;;
1754;Laerm;58380;48.312;9.246;2023-07-24T14:34:31;45.38;38.41;62.29;;
1754;Laerm;58380;48.312;9.246;2023-07-24T14:36:57;50.08;38.81;72.47;;
1754;Laerm;58380;48.312;9.246;2023-07-24T14:39:22;47.39;37.78;71.74;;
1754;Laerm;58380;48.312;9.246;2023-07-24T14:41:48;46.20;39.21;68.20;;
1754;Laerm;58380;48.312;9.246;2023-07-24T14:44:13;46.91;39.28;68.03;;
1754;Laerm;58380;48.312;9.246;2023-07-24T14:46:39;43.94;35.67;63.34;;
1754;Laerm;58380;48.312;9.246;2023-07-24T14:49:04;54.35;38.55;84.19;;
1754;Laerm;58380;48.312;9.246;2023-07-24T14:51:29;44.84;35.57;58.32;;
1754;Laerm;58380;48.312;9.246;2023-07-24T14:53:55;55.07;39.15;78.76;;
1754;Laerm;58380;48.312;9.246;2023-07-24T14:56:20;47.91;40.18;58.40;;
1754;Laerm;58380;48.312;9.246;2023-07-24T14:58:46;45.22;37.97;61.73;;
1754;Laerm;58380;48.312;9.246;2023-07-24T15:01:12;47.99;38.18;56.58;;
1754;Laerm;58380;48.312;9.246;2023-07-24T15:03:38;44.91;34.65;54.33;;
1754;Laerm;58380;48.312;9.246;2023-07-24T15:06:04;46.11;38.50;56.25;;
1754;Laerm;58380;48.312;9.246;2023-07-24T15:08:34;46.19;34.52;54.44;;
1754;Laerm;58380;48.312;9.246;2023-07-24T15:11:00;46.02;34.03;57.40;;
1754;Laerm;58380;48.312;9.246;2023-07-24T15:13:26;46.65;36.67;65.34;;
1754;Laerm;58380;48.312;9.246;2023-07-24T15:15:52;45.96;37.93;58.79;;
1754;Laerm;58380;48.312;9.246;2023-07-24T15:18:17;44.66;37.57;58.15;;
1754;Laerm;58380;48.312;9.246;2023-07-24T15:20:43;43.66;35.22;64.40;;
1754;Laerm;58380;48.312;9.246;2023-07-24T15:23:09;51.44;35.16;79.07;;
1754;Laerm;58380;48.312;9.246;2023-07-24T15:25:34;46.98;36.19;70.83;;
1754;Laerm;58380;48.312;9.246;2023-07-24T15:28:00;47.53;35.00;78.35;;
1754;Laerm;58380;48.312;9.246;2023-07-24T15:30:25;47.66;36.79;68.41;;
1754;Laerm;58380;48.312;9.246;2023-07-24T15:32:51;48.35;36.16;70.01;;
1754;Laerm;58380;48.312;9.246;2023-07-24T15:35:16;46.30;38.36;69.17;;
1754;Laerm;58380;48.312;9.246;2023-07-24T15:37:42;44.49;34.51;65.42;;
1754;Laerm;58380;48.312;9.246;2023-07-24T15:40:09;46.82;35.33;75.04;;
1754;Laerm;58380;48.312;9.246;2023-07-24T15:42:35;42.95;35.34;57.32;;
1754;Laerm;58380;48.312;9.246;2023-07-24T15:45:00;45.21;38.34;54.19;;
1754;Laerm;58380;48.312;9.246;2023-07-24T15:47:25;47.68;37.98;77.17;;
1754;Laerm;58380;48.312;9.246;2023-07-24T15:49:51;42.96;35.88;59.70;;
1754;Laerm;58380;48.312;9.246;2023-07-24T15:52:17;46.73;34.10;65.78;;
1754;Laerm;58380;48.312;9.246;2023-07-24T15:54:42;44.65;34.28;59.51;;
1754;Laerm;58380;48.312;9.246;2023-07-24T15:57:08;46.89;36.36;76.45;;
1754;Laerm;58380;48.312;9.246;2023-07-24T15:59:33;46.40;33.43;76.40;;
1754;Laerm;58380;48.312;9.246;2023-07-24T16:01:58;47.32;33.97;71.17;;
1754;Laerm;58380;48.312;9.246;2023-07-24T16:04:24;46.02;39.41;63.39;;
1754;Laerm;58380;48.312;9.246;2023-07-24T16:06:49;46.69;33.26;70.56;;
1754;Laerm;58380;48.312;9.246;2023-07-24T16:09:14;48.32;35.90;74.68;;
1754;Laerm;58380;48.312;9.246;2023-07-24T16:11:40;48.62;36.58;78.42;;
1754;Laerm;58380;48.312;9.246;2023-07-24T16:14:05;52.40;35.34;83.26;;
1754;Laerm;58380;48.312;9.246;2023-07-24T16:16:31;44.49;34.92;70.37;;
1754;Laerm;58380;48.312;9.246;2023-07-24T16:19:16;47.85;34.47;72.89;;
1754;Laerm;58380;48.312;9.246;2023-07-24T16:21:43;46.04;36.46;66.83;;
1754;Laerm;58380;48.312;9.246;2023-07-24T16:24:09;46.67;33.93;70.44;;
1754;Laerm;58380;48.312;9.246;2023-07-24T16:26:35;50.98;33.80;79.92;;
1754;Laerm;58380;48.312;9.246;2023-07-24T16:29:03;46.29;36.25;66.06;;
1754;Laerm;58380;48.312;9.246;2023-07-24T16:31:29;46.30;34.78;77.34;;
1754;Laerm;58380;48.312;9.246;2023-07-24T16:33:54;44.83;33.65;58.91;;
1754;Laerm;58380;48.312;9.246;2023-07-24T16:36:20;42.22;35.99;51.61;;
1754;Laerm;58380;48.312;9.246;2023-07-24T16:38:45;46.94;37.19;72.25;;
1754;Laerm;58380;48.312;9.246;2023-07-24T16:41:10;45.99;35.52;71.67;;
1754;Laerm;58380;48.312;9.246;2023-07-24T16:43:36;41.78;32.67;57.52;;
1754;Laerm;58380;48.312;9.246;2023-07-24T16:46:01;40.62;32.13;59.61;;
1754;Laerm;58380;48.312;9.246;2023-07-24T16:48:27;43.30;33.83;58.33;;
1754;Laerm;58380;48.312;9.246;2023-07-24T16:50:52;46.99;32.31;68.65;;
1754;Laerm;58380;48.312;9.246;2023-07-24T16:53:18;44.82;32.46;71.35;;
1754;Laerm;58380;48.312;9.246;2023-07-24T16:55:43;44.04;33.55;66.95;;
1754;Laerm;58380;48.312;9.246;2023-07-24T16:58:08;42.09;34.48;59.29;;
1754;Laerm;58380;48.312;9.246;2023-07-24T17:00:34;41.20;32.38;62.61;;
1754;Laerm;58380;48.312;9.246;2023-07-24T17:02:59;41.14;32.36;51.30;;
1754;Laerm;58380;48.312;9.246;2023-07-24T17:05:24;41.27;32.85;50.14;;
1754;Laerm;58380;48.312;9.246;2023-07-24T17:07:50;41.91;35.49;50.58;;
1754;Laerm;58380;48.312;9.246;2023-07-24T17:10:15;43.07;35.35;59.53;;
1754;Laerm;58380;48.312;9.246;2023-07-24T17:12:42;38.46;33.47;50.72;;
1754;Laerm;58380;48.312;9.246;2023-07-24T17:15:08;39.64;33.04;49.76;;
1754;Laerm;58380;48.312;9.246;2023-07-24T17:17:33;42.66;33.32;54.28;;
1754;Laerm;58380;48.312;9.246;2023-07-24T17:19:59;41.99;32.91;62.10;;
1754;Laerm;58380;48.312;9.246;2023-07-24T17:22:25;50.33;35.89;76.63;;
1754;Laerm;58380;48.312;9.246;2023-07-24T17:24:51;40.73;34.80;54.35;;
1754;Laerm;58380;48.312;9.246;2023-07-24T17:27:16;42.57;32.69;53.32;;
1754;Laerm;58380;48.312;9.246;2023-07-24T17:29:42;39.21;31.94;50.74;;
1754;Laerm;58380;48.312;9.246;2023-07-24T17:32:07;37.88;31.46;46.79;;
1754;Laerm;58380;48.312;9.246;2023-07-24T17:34:33;42.71;33.50;57.48;;
1754;Laerm;58380;48.312;9.246;2023-07-24T17:36:58;39.95;31.56;56.81;;
1754;Laerm;58380;48.312;9.246;2023-07-24T17:39:23;41.71;32.15;53.28;;
1754;Laerm;58380;48.312;9.246;2023-07-24T17:41:49;37.44;32.00;52.98;;
1754;Laerm;58380;48.312;9.246;2023-07-24T17:44:14;40.93;32.76;48.42;;
1754;Laerm;58380;48.312;9.246;2023-07-24T17:46:39;38.98;31.24;48.18;;
1754;Laerm;58380;48.312;9.246;2023-07-24T17:49:05;43.23;31.37;64.39;;
1754;Laerm;58380;48.312;9.246;2023-07-24T17:51:30;37.93;30.40;51.80;;
1754;Laerm;58380;48.312;9.246;2023-07-24T17:53:56;39.85;32.11;56.21;;
1754;Laerm;58380;48.312;9.246;2023-07-24T17:56:24;37.30;31.98;46.84;;
1754;Laerm;58380;48.312;9.246;2023-07-24T17:58:49;40.05;34.34;51.91;;
1754;Laerm;58380;48.312;9.246;2023-07-24T18:01:15;39.12;34.21;51.56;;
1754;Laerm;58380;48.312;9.246;2023-07-24T18:03:40;42.03;33.11;53.02;;
1754;Laerm;58380;48.312;9.246;2023-07-24T18:06:06;37.91;32.88;48.44;;
1754;Laerm;58380;48.312;9.246;2023-07-24T18:08:31;39.15;32.01;50.19;;
1754;Laerm;58380;48.312;9.246;2023-07-24T18:10:57;40.01;33.51;49.20;;
1754;Laerm;58380;48.312;9.246;2023-07-24T18:13:22;39.32;31.66;50.25;;
1754;Laerm;58380;48.312;9.246;2023-07-24T18:15:48;39.99;32.92;54.41;;
1754;Laerm;58380;48.312;9.246;2023-07-24T18:18:14;38.87;31.06;50.87;;
1754;Laerm;58380;48.312;9.246;2023-07-24T18:20:39;41.23;31.98;49.15;;
1754;Laerm;58380;48.312;9.246;2023-07-24T18:23:04;41.57;33.99;55.66;;
1754;Laerm;58380;48.312;9.246;2023-07-24T18:25:30;39.27;33.45;50.96;;
1754;Laerm;58380;48.312;9.246;2023-07-24T18:27:55;39.04;33.53;50.73;;
1754;Laerm;58380;48.312;9.246;2023-07-24T18:30:21;38.41;33.76;46.84;;
1754;Laerm;58380;48.312;9.246;2023-07-24T18:32:54;39.57;31.94;58.47;;
1754;Laerm;58380;48.312;9.246;2023-07-24T18:35:20;37.08;31.52;48.98;;
1754;Laerm;58380;48.312;9.246;2023-07-24T18:37:45;38.39;32.80;51.26;;
1754;Laerm;58380;48.312;9.246;2023-07-24T18:40:11;38.63;31.43;49.10;;
1754;Laerm;58380;48.312;9.246;2023-07-24T18:42:37;37.69;32.19;49.56;;
1754;Laerm;58380;48.312;9.246;2023-07-24T18:45:03;36.85;31.37;47.12;;
1754;Laerm;58380;48.312;9.246;2023-07-24T18:47:29;36.64;31.60;46.96;;
1754;Laerm;58380;48.312;9.246;2023-07-24T18:49:55;40.12;31.33;60.28;;
1754;Laerm;58380;48.312;9.246;2023-07-24T18:52:21;37.11;32.51;45.11;;
1754;Laerm;58380;48.312;9.246;2023-07-24T18:54:46;38.10;33.13;44.82;;
1754;Laerm;58380;48.312;9.246;2023-07-24T18:57:13;39.91;31.61;55.46;;
1754;Laerm;58380;48.312;9.246;2023-07-24T18:59:38;35.75;30.56;47.13;;
1754;Laerm;58380;48.312;9.246;2023-07-24T19:02:04;37.02;31.21;56.89;;
1754;Laerm;58380;48.312;9.246;2023-07-24T19:04:29;39.59;31.95;58.80;;
1754;Laerm;58380;48.312;9.246;2023-07-24T19:06:55;39.14;31.11;59.73;;
1754;Laerm;58380;48.312;9.246;2023-07-24T19:09:20;36.41;31.13;54.56;;
1754;Laerm;58380;48.312;9.246;2023-07-24T19:11:46;37.58;30.73;50.17;;
1754;Laerm;58380;48.312;9.246;2023-07-24T19:14:11;35.77;30.92;44.53;;
1754;Laerm;58380;48.312;9.246;2023-07-24T19:16:37;40.20;31.76;54.66;;
1754;Laerm;58380;48.312;9.246;2023-07-24T19:19:02;38.85;31.87;44.59;;
1754;Laerm;58380;48.312;9.246;2023-07-24T19:21:30;36.18;30.82;46.54;;
1754;Laerm;58380;48.312;9.246;2023-07-24T19:23:56;39.11;30.93;47.10;;
1754;Laerm;58380;48.312;9.246;2023-07-24T19:26:21;37.44;31.86;46.62;;
1754;Laerm;58380;48.312;9.246;2023-07-24T19:28:47;39.41;31.57;47.80;;
1754;Laerm;58380;48.312;9.246;2023-07-24T19:31:12;39.20;33.08;44.61;;
1754;Laerm;58380;48.312;9.246;2023-07-24T19:33:38;39.55;32.50;48.19;;
1754;Laerm;58380;48.312;9.246;2023-07-24T19:36:03;43.47;34.05;57.90;;
1754;Laerm;58380;48.312;9.246;2023-07-24T19:38:29;39.81;32.93;48.02;;
1754;Laerm;58380;48.312;9.246;2023-07-24T19:40:59;38.84;31.90;48.49;;
1754;Laerm;58380;48.312;9.246;2023-07-24T19:43:25;37.56;31.03;48.06;;
1754;Laerm;58380;48.312;9.246;2023-07-24T19:45:51;43.31;34.94;58.02;;
1754;Laerm;58380;48.312;9.246;2023-07-24T19:48:18;41.08;34.90;49.88;;
1754;Laerm;58380;48.312;9.246;2023-07-24T19:50:52;39.49;32.46;52.36;;
1754;Laerm;58380;48.312;9.246;2023-07-24T19:53:22;37.27;31.31;45.65;;
1754;Laerm;58380;48.312;9.246;2023-07-24T19:55:49;38.33;32.46;45.25;;
1754;Laerm;58380;48.312;9.246;2023-07-24T19:58:15;39.61;32.20;51.46;;